Time;durP1;ratioP1;P1;durP2;ratioP2;P2;SDS_P1;SDS_P2;PMS_P1;PMS_P2;Temp;Humidity;BMP_temperature;BMP_pressure;BME280_temperature;BME280_humidity;BME280_pressure;Samples;Min_cycle;Max_cycle;Signal;HPM_P1;HPM_P2
2022/10/17 00:02:01;;;;;;;;;10.40;10.20;;;;;;;;5164706;28;8977;-69
2022/10/17 00:04:32;;;;;;;;;13.00;12.00;;;;;;;;5148392;28;9507;-69
2022/10/17 00:07:03;;;;;;;;;12.00;12.00;;;;;;;;5164818;28;8803;-69
2022/10/17 00:09:34;;;;;;;;;9.40;9.40;;;;;;;;5161769;28;8799;-68
2022/10/17 00:12:06;;;;;;;;;7.60;7.60;;;;;;;;5164300;28;8783;-72
2022/10/17 00:14:37;;;;;;;;;13.60;13.60;;;;;;;;5148423;28;8807;-72
2022/10/17 00:17:08;;;;;;;;;13.20;13.20;;;;;;;;5147800;28;8826;-70
2022/10/17 00:19:40;;;;;;;;;9.00;9.00;;;;;;;;5164382;28;8818;-69
2022/10/17 00:22:12;;;;;;;;;13.60;13.00;;;;;;;;5148089;28;8788;-69
2022/10/17 00:25:01;;;;;;;;;11.60;11.60;;;;;;;;5162829;28;8819;-69
2022/10/17 00:27:34;;;;;;;;;9.40;9.40;;;;;;;;5164245;28;8840;-70
2022/10/17 00:30:06;;;;;;;;;9.00;9.00;;;;;;;;5165433;28;9009;-70
2022/10/17 00:32:56;;;;;;;;;10.00;10.00;;;;;;;;5175892;28;8862;-69
2022/10/17 00:35:27;;;;;;;;;12.60;12.60;;;;;;;;5146599;28;8780;-70
2022/10/17 00:38:16;;;;;;;;;10.40;10.40;;;;;;;;5164857;28;8833;-70
2022/10/17 00:41:06;;;;;;;;;11.40;11.40;;;;;;;;5164280;28;8788;-70
2022/10/17 00:43:48;;;;;;;;;11.00;11.00;;;;;;;;5164715;28;8795;-70
2022/10/17 00:46:20;;;;;;;;;12.00;12.00;;;;;;;;5180862;28;8885;-72
2022/10/17 00:48:53;;;;;;;;;10.20;9.60;;;;;;;;5148207;28;8787;-72
2022/10/17 00:51:45;;;;;;;;;11.00;11.00;;;;;;;;5178230;28;8838;-71
2022/10/17 00:54:19;;;;;;;;;10.40;10.40;;;;;;;;5180484;28;8788;-72
2022/10/17 00:56:51;;;;;;;;;14.40;14.40;;;;;;;;5163677;28;8816;-71
2022/10/17 00:59:23;;;;;;;;;11.60;11.60;;;;;;;;5180163;28;8835;-72
2022/10/17 01:02:05;;;;;;;;;12.60;12.40;;;;;;;;5148082;28;8799;-70
2022/10/17 01:04:38;;;;;;;;;13.00;13.00;;;;;;;;5164053;28;8811;-71
2022/10/17 01:07:10;;;;;;;;;9.60;9.60;;;;;;;;5131826;28;8884;-71
2022/10/17 01:09:42;;;;;;;;;13.60;13.60;;;;;;;;5163909;28;8807;-70
2022/10/17 01:12:17;;;;;;;;;20.40;20.40;;;;;;;;5147206;28;9550;-70
2022/10/17 01:15:08;;;;;;;;;9.60;9.60;;;;;;;;5163677;28;8803;-69
2022/10/17 01:17:53;;;;;;;;;12.80;12.60;;;;;;;;5163909;28;8815;-69
2022/10/17 01:20:25;;;;;;;;;11.60;11.60;;;;;;;;5131673;28;8784;-69
2022/10/17 01:22:57;;;;;;;;;9.20;9.20;;;;;;;;5147961;28;8803;-70
2022/10/17 01:25:48;;;;;;;;;14.00;13.20;;;;;;;;5163011;28;8937;-68
2022/10/17 01:28:35;;;;;;;;;6.80;6.40;;;;;;;;5134309;28;8830;-68
2022/10/17 01:31:07;;;;;;;;;9.40;9.40;;;;;;;;5163746;28;8787;-69
2022/10/17 01:33:47;;;;;;;;;6.20;6.00;;;;;;;;5163769;28;9518;-69
2022/10/17 01:36:27;;;;;;;;;11.80;11.80;;;;;;;;5147464;28;8947;-68
2022/10/17 01:39:37;;;;;;;;;13.60;13.60;;;;;;;;5162503;28;8816;-70
2022/10/17 01:42:25;;;;;;;;;8.40;8.40;;;;;;;;5071005;29;8812;-71
2022/10/17 01:45:07;;;;;;;;;11.20;11.00;;;;;;;;5086746;29;8898;-71
2022/10/17 01:47:41;;;;;;;;;12.80;12.80;;;;;;;;5126685;28;8795;-71
2022/10/17 01:50:32;;;;;;;;;13.00;13.00;;;;;;;;5147317;28;8787;-71
2022/10/17 01:53:07;;;;;;;;;12.00;11.60;;;;;;;;5146785;28;8779;-71
2022/10/17 01:55:41;;;;;;;;;9.00;9.00;;;;;;;;5130961;28;9585;-70
2022/10/17 01:58:15;;;;;;;;;12.20;12.00;;;;;;;;5162732;28;8816;-70
2022/10/17 02:00:48;;;;;;;;;11.60;11.60;;;;;;;;5147441;28;8822;-70
2022/10/17 02:03:20;;;;;;;;;13.20;13.20;;;;;;;;5163157;28;8799;-70
2022/10/17 02:05:52;;;;;;;;;11.80;11.80;;;;;;;;5163102;28;8795;-69
2022/10/17 02:08:24;;;;;;;;;16.60;16.60;;;;;;;;5162786;28;8810;-69
2022/10/17 02:11:00;;;;;;;;;11.80;11.80;;;;;;;;5130896;28;8818;-70
2022/10/17 02:13:37;;;;;;;;;12.80;12.80;;;;;;;;5146785;28;8823;-69
2022/10/17 02:16:21;;;;;;;;;6.40;6.00;;;;;;;;5147010;28;8841;-70
2022/10/17 02:19:05;;;;;;;;;11.40;11.40;;;;;;;;5146630;28;8799;-69
2022/10/17 02:21:56;;;;;;;;;11.40;11.40;;;;;;;;5149558;28;8806;-69
2022/10/17 02:24:42;;;;;;;;;11.80;11.40;;;;;;;;5165726;28;8913;-69
2022/10/17 02:27:37;;;;;;;;;13.00;13.00;;;;;;;;5150888;28;8791;-68
2022/10/17 02:30:12;;;;;;;;;6.80;6.80;;;;;;;;5151299;28;8893;-68
2022/10/17 02:33:05;;;;;;;;;13.40;13.40;;;;;;;;5181064;28;9817;-68
2022/10/17 02:35:39;;;;;;;;;14.00;14.00;;;;;;;;5150700;28;8868;-69
2022/10/17 02:38:11;;;;;;;;;12.80;12.60;;;;;;;;5166524;28;8827;-68
2022/10/17 02:40:43;;;;;;;;;12.60;12.60;;;;;;;;5182908;28;8795;-68
2022/10/17 02:43:15;;;;;;;;;12.00;12.00;;;;;;;;5167895;28;8803;-68
2022/10/17 02:45:46;;;;;;;;;12.60;12.60;;;;;;;;5166581;28;8799;-68
2022/10/17 02:48:37;;;;;;;;;10.80;10.80;;;;;;;;5166715;28;8779;-69
2022/10/17 02:51:15;;;;;;;;;11.60;11.60;;;;;;;;5150159;28;8982;-71
2022/10/17 02:54:20;;;;;;;;;15.00;15.00;;;;;;;;5152858;28;8791;-71
2022/10/17 02:57:00;;;;;;;;;17.40;17.40;;;;;;;;5150284;28;8811;-71
2022/10/17 02:59:50;;;;;;;;;15.00;15.00;;;;;;;;5152424;28;8831;-71
2022/10/17 03:02:21;;;;;;;;;13.80;13.60;;;;;;;;5166507;28;8809;-72
2022/10/17 03:04:53;;;;;;;;;10.40;10.40;;;;;;;;5166499;28;8775;-71
2022/10/17 03:07:24;;;;;;;;;16.00;16.00;;;;;;;;5150241;28;9689;-70
2022/10/17 03:09:55;;;;;;;;;11.60;11.20;;;;;;;;5167376;28;8810;-70
2022/10/17 03:12:26;;;;;;;;;17.60;17.60;;;;;;;;5167258;28;8854;-71
2022/10/17 03:14:58;;;;;;;;;19.60;17.20;;;;;;;;5165997;28;8934;-70
2022/10/17 03:17:29;;;;;;;;;14.00;14.00;;;;;;;;5165418;28;8827;-71
2022/10/17 03:20:00;;;;;;;;;17.60;17.60;;;;;;;;5166181;28;8847;-70
2022/10/17 03:22:34;;;;;;;;;20.80;18.00;;;;;;;;5150333;28;8885;-70
2022/10/17 03:25:07;;;;;;;;;17.80;17.80;;;;;;;;5165635;28;9534;-70
2022/10/17 03:27:40;;;;;;;;;18.40;18.40;;;;;;;;5149978;28;8949;-70
2022/10/17 03:30:12;;;;;;;;;19.20;19.20;;;;;;;;5165925;28;8869;-70
2022/10/17 03:32:43;;;;;;;;;18.60;17.80;;;;;;;;5149605;28;8795;-69
2022/10/17 03:35:14;;;;;;;;;17.40;16.00;;;;;;;;5164772;28;8808;-70
2022/10/17 03:37:49;;;;;;;;;13.40;13.40;;;;;;;;5149532;28;8803;-70
2022/10/17 03:40:22;;;;;;;;;20.20;19.80;;;;;;;;5165937;28;8914;-70
2022/10/17 03:42:54;;;;;;;;;18.20;18.20;;;;;;;;5166582;28;8783;-70
2022/10/17 03:45:25;;;;;;;;;15.60;15.60;;;;;;;;5165913;28;8802;-70
2022/10/17 03:47:57;;;;;;;;;15.80;15.00;;;;;;;;5165376;28;8784;-70
2022/10/17 03:50:29;;;;;;;;;13.00;13.00;;;;;;;;5164943;28;9555;-70
2022/10/17 03:53:02;;;;;;;;;15.20;15.20;;;;;;;;5148213;28;8827;-71
2022/10/17 03:55:33;;;;;;;;;10.60;10.60;;;;;;;;5164420;28;8807;-68
2022/10/17 03:58:04;;;;;;;;;17.60;17.60;;;;;;;;5148590;28;8804;-69
2022/10/17 04:00:37;;;;;;;;;17.80;16.80;;;;;;;;5149032;28;8822;-69
2022/10/17 04:03:27;;;;;;;;;12.20;12.20;;;;;;;;5179512;28;8787;-69
2022/10/17 04:05:59;;;;;;;;;15.80;15.80;;;;;;;;5148979;28;8807;-69
2022/10/17 04:08:32;;;;;;;;;20.00;20.00;;;;;;;;5149061;28;8815;-69
2022/10/17 04:11:13;;;;;;;;;16.80;16.80;;;;;;;;5149728;28;8849;-69
2022/10/17 04:13:44;;;;;;;;;18.60;18.60;;;;;;;;5165102;28;8791;-68
2022/10/17 04:16:33;;;;;;;;;15.00;15.00;;;;;;;;5166030;28;9534;-69
2022/10/17 04:19:11;;;;;;;;;57.80;48.40;;;;;;;;5164914;28;8814;-69
2022/10/17 04:21:46;;;;;;;;;30.00;27.80;;;;;;;;5180582;28;8821;-68
2022/10/17 04:24:18;;;;;;;;;17.60;17.60;;;;;;;;5165370;28;8787;-68
2022/10/17 04:27:02;;;;;;;;;20.20;20.20;;;;;;;;5148957;28;8900;-68
2022/10/17 04:29:36;;;;;;;;;16.60;16.60;;;;;;;;5148269;28;8930;-68
2022/10/17 04:32:28;;;;;;;;;18.00;18.00;;;;;;;;5163419;28;8808;-69
2022/10/17 04:35:05;;;;;;;;;17.00;16.60;;;;;;;;5165659;28;8776;-69
2022/10/17 04:37:36;;;;;;;;;20.60;20.60;;;;;;;;5164349;28;8827;-69
2022/10/17 04:40:25;;;;;;;;;27.80;27.40;;;;;;;;5178225;28;8928;-70
2022/10/17 04:42:57;;;;;;;;;26.40;22.80;;;;;;;;5147261;28;8921;-70
2022/10/17 04:45:36;;;;;;;;;29.20;29.00;;;;;;;;5147454;28;8787;-72
2022/10/17 04:48:09;;;;;;;;;24.00;22.80;;;;;;;;5142069;28;8873;-69
2022/10/17 04:50:40;;;;;;;;;18.20;18.20;;;;;;;;5134950;28;8805;-69
2022/10/17 04:53:32;;;;;;;;;32.00;31.00;;;;;;;;5153754;28;8813;-69
2022/10/17 04:56:08;;;;;;;;;32.80;32.40;;;;;;;;5179813;28;8873;-81
2022/10/17 04:58:40;;;;;;;;;27.80;27.80;;;;;;;;5145966;28;8829;-70
2022/10/17 05:01:16;;;;;;;;;29.00;29.00;;;;;;;;5163280;28;8863;-70
2022/10/17 05:03:50;;;;;;;;;24.40;24.40;;;;;;;;5164391;28;8807;-71
2022/10/17 05:06:39;;;;;;;;;27.20;26.40;;;;;;;;5163341;28;8807;-71
2022/10/17 05:09:35;;;;;;;;;28.60;28.60;;;;;;;;5163483;28;8822;-70
2022/10/17 05:12:08;;;;;;;;;27.60;27.60;;;;;;;;5177167;28;8783;-72
2022/10/17 05:14:39;;;;;;;;;27.00;26.40;;;;;;;;5158253;28;8941;-72
2022/10/17 05:17:10;;;;;;;;;26.40;26.40;;;;;;;;5158161;28;8850;-73
2022/10/17 05:20:00;;;;;;;;;123.00;108.00;;;;;;;;5157591;28;8932;-71
2022/10/17 05:22:32;;;;;;;;;33.20;33.00;;;;;;;;5125934;28;8785;-72
2022/10/17 05:25:04;;;;;;;;;26.60;26.40;;;;;;;;5149124;28;8912;-71
2022/10/17 05:27:37;;;;;;;;;26.00;26.00;;;;;;;;5141724;28;8797;-72
2022/10/17 05:30:09;;;;;;;;;24.00;23.60;;;;;;;;5151274;28;8811;-71
2022/10/17 05:32:42;;;;;;;;;17.60;15.20;;;;;;;;5161010;28;8949;-72
2022/10/17 05:35:13;;;;;;;;;30.60;28.20;;;;;;;;5161469;28;8819;-71
2022/10/17 05:37:45;;;;;;;;;30.20;30.20;;;;;;;;5144985;28;8847;-72
2022/10/17 05:40:17;;;;;;;;;24.00;24.00;;;;;;;;5177368;28;8787;-71
2022/10/17 05:42:48;;;;;;;;;25.20;24.60;;;;;;;;5145180;28;8919;-70
2022/10/17 05:45:21;;;;;;;;;20.60;20.60;;;;;;;;5176965;28;8958;-71
2022/10/17 05:47:52;;;;;;;;;16.40;16.00;;;;;;;;5159707;28;8831;-71
2022/10/17 05:50:24;;;;;;;;;24.00;24.00;;;;;;;;5143223;28;8829;-70
2022/10/17 05:53:15;;;;;;;;;28.40;27.60;;;;;;;;5159634;28;8814;-72
2022/10/17 05:55:54;;;;;;;;;21.40;20.80;;;;;;;;5143414;28;8875;-71
2022/10/17 05:58:44;;;;;;;;;30.20;27.40;;;;;;;;5174253;28;8826;-71
2022/10/17 06:01:27;;;;;;;;;33.40;32.20;;;;;;;;5145637;28;8839;-71
2022/10/17 06:03:58;;;;;;;;;19.40;19.00;;;;;;;;5141021;28;8840;-71
2022/10/17 06:06:47;;;;;;;;;23.00;23.00;;;;;;;;5161245;28;9556;-71
2022/10/17 06:09:18;;;;;;;;;22.20;22.20;;;;;;;;5143058;28;8819;-71
2022/10/17 06:11:52;;;;;;;;;21.80;21.40;;;;;;;;5160248;28;8784;-71
2022/10/17 06:14:42;;;;;;;;;18.60;18.60;;;;;;;;5159466;28;8831;-72
2022/10/17 06:17:16;;;;;;;;;24.40;21.80;;;;;;;;5160400;28;8957;-71
2022/10/17 06:19:47;;;;;;;;;22.20;20.80;;;;;;;;5160179;28;8858;-70
2022/10/17 06:22:19;;;;;;;;;23.40;22.60;;;;;;;;5144328;28;8910;-71
2022/10/17 06:24:52;;;;;;;;;22.40;22.40;;;;;;;;5160066;28;8795;-71
2022/10/17 06:27:23;;;;;;;;;22.20;18.60;;;;;;;;5161344;28;8893;-71
2022/10/17 06:29:54;;;;;;;;;22.00;21.20;;;;;;;;5145473;28;8807;-71
2022/10/17 06:32:26;;;;;;;;;16.60;16.60;;;;;;;;5177361;28;8818;-71
2022/10/17 06:34:57;;;;;;;;;23.00;22.40;;;;;;;;5160935;28;8811;-71
2022/10/17 06:37:31;;;;;;;;;20.00;19.20;;;;;;;;5144680;28;8973;-71
2022/10/17 06:40:06;;;;;;;;;22.80;22.80;;;;;;;;5144482;28;8803;-72
2022/10/17 06:42:38;;;;;;;;;13.60;13.60;;;;;;;;5162208;28;8792;-71
2022/10/17 06:45:28;;;;;;;;;21.40;20.40;;;;;;;;5159942;28;8953;-70
2022/10/17 06:48:11;;;;;;;;;22.80;22.80;;;;;;;;5160636;28;8795;-70
2022/10/17 06:51:00;;;;;;;;;20.00;20.00;;;;;;;;5144779;28;8818;-71
2022/10/17 06:53:33;;;;;;;;;24.40;24.40;;;;;;;;5144770;28;8965;-71
2022/10/17 06:56:10;;;;;;;;;27.00;27.00;;;;;;;;5176288;28;8811;-70
2022/10/17 06:58:59;;;;;;;;;21.00;21.00;;;;;;;;5160485;28;8962;-72
2022/10/17 07:01:34;;;;;;;;;20.00;19.60;;;;;;;;5158653;28;8847;-72
2022/10/17 07:04:07;;;;;;;;;18.80;18.80;;;;;;;;5175090;28;8853;-70
2022/10/17 07:06:38;;;;;;;;;32.40;31.40;;;;;;;;5176033;28;8896;-71
2022/10/17 07:09:16;;;;;;;;;18.60;18.60;;;;;;;;5147446;28;8810;-70
2022/10/17 07:11:48;;;;;;;;;22.60;20.80;;;;;;;;5166164;28;9510;-70
2022/10/17 07:14:22;;;;;;;;;23.40;23.00;;;;;;;;5181798;28;8946;-71
2022/10/17 07:16:53;;;;;;;;;20.80;20.80;;;;;;;;5165952;28;8827;-70
2022/10/17 07:19:27;;;;;;;;;18.20;18.20;;;;;;;;5181790;28;9017;-71
2022/10/17 07:22:17;;;;;;;;;21.00;21.00;;;;;;;;5167160;28;8799;-70
2022/10/17 07:24:51;;;;;;;;;22.00;22.00;;;;;;;;5149230;28;8896;-70
2022/10/17 07:27:30;;;;;;;;;21.00;21.00;;;;;;;;5166101;28;8885;-70
2022/10/17 07:30:02;;;;;;;;;20.60;20.20;;;;;;;;5149595;28;8819;-70
2022/10/17 07:32:41;;;;;;;;;16.60;15.80;;;;;;;;5149705;28;8803;-70
2022/10/17 07:35:13;;;;;;;;;16.20;16.00;;;;;;;;5167155;28;8789;-71
2022/10/17 07:37:45;;;;;;;;;16.40;16.00;;;;;;;;5150206;28;8811;-71
2022/10/17 07:40:18;;;;;;;;;13.40;13.40;;;;;;;;5165225;28;8819;-71
2022/10/17 07:43:08;;;;;;;;;18.80;18.60;;;;;;;;5167044;28;8818;-71
2022/10/17 07:45:40;;;;;;;;;14.40;14.40;;;;;;;;5165685;28;8857;-71
2022/10/17 07:48:29;;;;;;;;;14.00;13.50;;;;;;;;5179622;28;8783;-70
2022/10/17 07:51:02;;;;;;;;;17.00;17.00;;;;;;;;5149378;28;8806;-70
2022/10/17 07:53:51;;;;;;;;;14.20;13.40;;;;;;;;5165358;28;8949;-71
2022/10/17 07:56:23;;;;;;;;;12.40;11.80;;;;;;;;5165336;28;8850;-71
2022/10/17 07:58:55;;;;;;;;;15.75;15.75;;;;;;;;5148823;28;8833;-70
2022/10/17 08:01:27;;;;;;;;;16.75;16.75;;;;;;;;5165128;28;8881;-72
2022/10/17 08:03:58;;;;;;;;;13.00;13.00;;;;;;;;5165357;28;8808;-70
2022/10/17 08:06:29;;;;;;;;;16.33;16.33;;;;;;;;5165321;28;8791;-70
2022/10/17 08:09:00;;;;;;;;;11.00;10.00;;;;;;;;5181583;28;10536;-80
2022/10/17 08:11:31;;;;;;;;;13.00;13.00;;;;;;;;5149373;28;8804;-83
2022/10/17 08:14:02;;;;;;;;;18.00;18.00;;;;;;;;5166762;28;8849;-86
2022/10/17 08:16:33;;;;;;;;;19.00;19.00;;;;;;;;5150166;28;12212;-83
2022/10/17 08:19:05;;;;;;;;;13.33;13.00;;;;;;;;5165064;28;8799;-85
2022/10/17 08:21:36;;;;;;;;;12.25;12.25;;;;;;;;5165493;28;12300;-84
2022/10/17 08:24:07;;;;;;;;;10.75;10.75;;;;;;;;5165400;28;8925;-80
2022/10/17 08:26:38;;;;;;;;;13.50;13.50;;;;;;;;5183299;28;8783;-84
2022/10/17 08:29:13;;;;;;;;;10.25;10.25;;;;;;;;5168753;28;8788;-86
2022/10/17 08:31:44;;;;;;;;;13.00;12.00;;;;;;;;5150295;28;8807;-83
2022/10/17 08:34:15;;;;;;;;;10.00;10.00;;;;;;;;5173725;28;8783;-81
2022/10/17 08:36:46;;;;;;;;;14.50;14.50;;;;;;;;5138570;28;8823;-79
2022/10/17 08:39:17;;;;;;;;;14.75;14.50;;;;;;;;5174920;28;8819;-85
2022/10/17 08:42:07;;;;;;;;;19.20;19.00;;;;;;;;5135975;28;8811;-81
2022/10/17 08:44:49;;;;;;;;;8.50;8.50;;;;;;;;5164809;28;8807;-78
2022/10/17 08:47:23;;;;;;;;;9.25;9.25;;;;;;;;5165853;28;8791;-74
2022/10/17 08:50:00;;;;;;;;;10.50;10.50;;;;;;;;5164348;28;8784;-76
2022/10/17 08:52:40;;;;;;;;;11.25;11.25;;;;;;;;5165264;28;8853;-77
2022/10/17 08:55:27;;;;;;;;;13.50;11.75;;;;;;;;5165059;28;8799;-75
2022/10/17 08:57:58;;;;;;;;;13.00;13.00;;;;;;;;5165363;28;8825;-74
2022/10/17 09:00:30;;;;;;;;;10.50;10.50;;;;;;;;5177915;28;9527;-76
2022/10/17 09:03:04;;;;;;;;;9.25;9.25;;;;;;;;5148132;28;8787;-75
2022/10/17 09:05:52;;;;;;;;;10.25;9.75;;;;;;;;5165853;28;8795;-74
2022/10/17 09:08:30;;;;;;;;;7.75;7.75;;;;;;;;5132363;28;8854;-73
2022/10/17 09:11:01;;;;;;;;;11.75;11.75;;;;;;;;5164689;28;8803;-76
2022/10/17 09:13:44;;;;;;;;;7.00;7.00;;;;;;;;5164458;28;8814;-74
2022/10/17 09:16:24;;;;;;;;;7.25;7.25;;;;;;;;5148409;28;11119;-74
2022/10/17 09:18:55;;;;;;;;;18.50;18.25;;;;;;;;5148011;28;8802;-79
2022/10/17 09:21:38;;;;;;;;;16.00;16.00;;;;;;;;5148357;28;9537;-77
2022/10/17 09:24:15;;;;;;;;;10.75;10.75;;;;;;;;5148558;28;8942;-77
2022/10/17 09:26:46;;;;;;;;;14.25;13.75;;;;;;;;5181278;28;8810;-78
2022/10/17 09:29:35;;;;;;;;;14.25;13.50;;;;;;;;5164460;28;8817;-79
2022/10/17 09:32:17;;;;;;;;;15.67;15.00;;;;;;;;5161483;28;8827;-80
2022/10/17 09:34:48;;;;;;;;;16.25;16.25;;;;;;;;5148619;28;11544;-79
2022/10/17 09:37:21;;;;;;;;;20.25;20.25;;;;;;;;5147393;28;8965;-77
2022/10/17 09:39:52;;;;;;;;;11.75;11.75;;;;;;;;5163123;28;8893;-76
2022/10/17 09:42:24;;;;;;;;;11.75;11.75;;;;;;;;5146837;28;8811;-76
2022/10/17 09:45:12;;;;;;;;;14.00;14.00;;;;;;;;5147270;28;8787;-76
2022/10/17 09:48:20;;;;;;;;;14.25;14.25;;;;;;;;5177439;28;9728;-80
2022/10/17 09:50:52;;;;;;;;;21.25;20.50;;;;;;;;5162940;28;8804;-74
2022/10/17 09:53:28;;;;;;;;;11.75;11.75;;;;;;;;5179383;28;9645;-75
2022/10/17 09:56:01;;;;;;;;;18.50;18.00;;;;;;;;5164656;28;8835;-76
2022/10/17 09:58:43;;;;;;;;;14.50;14.50;;;;;;;;5164108;28;8865;-77
2022/10/17 10:01:33;;;;;;;;;14.00;14.00;;;;;;;;5173845;28;8924;-79
2022/10/17 10:04:09;;;;;;;;;17.50;17.50;;;;;;;;5169540;28;8776;-79
2022/10/17 10:06:59;;;;;;;;;18.50;18.50;;;;;;;;5147833;28;8799;-80
2022/10/17 10:09:31;;;;;;;;;18.75;17.50;;;;;;;;5163331;28;8799;-80
2022/10/17 10:12:14;;;;;;;;;18.00;18.00;;;;;;;;5147921;28;8900;-79
2022/10/17 10:14:45;;;;;;;;;8.50;8.50;;;;;;;;5148978;28;8799;-82
2022/10/17 10:17:34;;;;;;;;;15.25;15.25;;;;;;;;5163487;28;8893;-79
2022/10/17 10:20:23;;;;;;;;;14.75;14.75;;;;;;;;5156346;28;8785;-77
2022/10/17 10:23:11;;;;;;;;;13.50;13.50;;;;;;;;5126739;28;8762;-74
2022/10/17 10:25:52;;;;;;;;;13.00;13.00;;;;;;;;5126833;28;8813;-76
2022/10/17 10:28:26;;;;;;;;;12.00;12.00;;;;;;;;5158723;28;8856;-76
2022/10/17 10:30:59;;;;;;;;;14.25;13.75;;;;;;;;5148282;28;8814;-76
2022/10/17 10:33:31;;;;;;;;;20.75;20.50;;;;;;;;5163145;28;8873;-76
2022/10/17 10:36:05;;;;;;;;;19.50;19.25;;;;;;;;5161134;28;8863;-78
2022/10/17 10:38:39;;;;;;;;;15.75;15.75;;;;;;;;5144477;28;8815;-79
2022/10/17 10:41:10;;;;;;;;;53.80;45.80;;;;;;;;5145215;28;8813;-78
2022/10/17 10:43:45;;;;;;;;;26.00;24.75;;;;;;;;5145052;28;8825;-80
2022/10/17 10:46:16;;;;;;;;;21.75;20.50;;;;;;;;5165112;28;8802;-78
2022/10/17 10:48:52;;;;;;;;;16.67;16.67;;;;;;;;5166510;28;8901;-76
2022/10/17 10:51:46;;;;;;;;;16.50;16.00;;;;;;;;5165714;28;12466;-76
2022/10/17 10:54:42;;;;;;;;;14.00;14.00;;;;;;;;5166331;28;8827;-82
2022/10/17 10:57:19;;;;;;;;;12.50;12.50;;;;;;;;5149064;28;8835;-74
2022/10/17 11:00:05;;;;;;;;;14.00;14.00;;;;;;;;5180506;28;8831;-76
2022/10/17 11:02:39;;;;;;;;;13.00;13.00;;;;;;;;5165249;28;8883;-74
2022/10/17 11:05:49;;;;;;;;;65.00;51.60;;;;;;;;5150909;28;8819;-74
2022/10/17 11:08:38;;;;;;;;;24.00;23.00;;;;;;;;5147862;28;8814;-73
2022/10/17 11:11:22;;;;;;;;;17.25;17.25;;;;;;;;5163873;28;8831;-75
2022/10/17 11:14:15;;;;;;;;;20.50;20.00;;;;;;;;5163212;28;8823;-78
2022/10/17 11:16:46;;;;;;;;;16.50;15.50;;;;;;;;5165710;28;8868;-78
2022/10/17 11:19:19;;;;;;;;;10.67;10.67;;;;;;;;5164563;28;8807;-77
2022/10/17 11:22:09;;;;;;;;;6.25;6.00;;;;;;;;5163513;28;11515;-79
2022/10/17 11:25:02;;;;;;;;;7.50;7.50;;;;;;;;5163950;28;8811;-78
2022/10/17 11:27:34;;;;;;;;;15.25;13.25;;;;;;;;5148077;28;8835;-78
2022/10/17 11:30:05;;;;;;;;;246.50;205.50;;;;;;;;5147094;28;8872;-78
2022/10/17 11:32:56;;;;;;;;;17.00;17.00;;;;;;;;5147561;28;8945;-78
2022/10/17 11:35:29;;;;;;;;;10.00;10.00;;;;;;;;5147908;28;8799;-78
2022/10/17 11:38:29;;;;;;;;;8.50;8.50;;;;;;;;5164431;28;8857;-78
2022/10/17 11:41:01;;;;;;;;;8.00;8.00;;;;;;;;5163799;28;8807;-77
2022/10/17 11:43:53;;;;;;;;;8.00;8.00;;;;;;;;5163670;28;8819;-76
2022/10/17 11:46:26;;;;;;;;;9.00;9.00;;;;;;;;5147953;28;8807;-78
2022/10/17 11:48:57;;;;;;;;;13.00;13.00;;;;;;;;5165269;28;8821;-81
2022/10/17 11:52:15;;;;;;;;;11.00;11.00;;;;;;;;5165015;28;8798;-81
2022/10/17 11:55:16;;;;;;;;;10.50;10.50;;;;;;;;5103308;28;8923;-80
2022/10/17 11:57:55;;;;;;;;;14.25;13.75;;;;;;;;5147835;28;8834;-79
2022/10/17 12:00:32;;;;;;;;;10.00;9.25;;;;;;;;5164215;28;8887;-79
2022/10/17 12:03:10;;;;;;;;;7.00;6.75;;;;;;;;5163579;28;8807;-79
2022/10/17 12:05:49;;;;;;;;;8.50;8.50;;;;;;;;5164255;28;8811;-82
2022/10/17 12:08:43;;;;;;;;;12.25;12.00;;;;;;;;5163738;28;8807;-76
2022/10/17 12:11:33;;;;;;;;;11.75;11.75;;;;;;;;5146806;28;8834;-77
2022/10/17 12:14:24;;;;;;;;;10.25;10.25;;;;;;;;5146800;28;8833;-82
2022/10/17 12:16:55;;;;;;;;;12.75;12.75;;;;;;;;5163418;28;8831;-80
2022/10/17 12:19:29;;;;;;;;;12.00;12.00;;;;;;;;5164363;28;8833;-80
2022/10/17 12:22:00;;;;;;;;;13.75;13.75;;;;;;;;5147601;28;8799;-81
2022/10/17 12:24:34;;;;;;;;;9.33;9.33;;;;;;;;5148175;28;9482;-82
2022/10/17 12:27:24;;;;;;;;;13.75;13.75;;;;;;;;5147966;28;8846;-79
2022/10/17 12:29:59;;;;;;;;;9.25;9.25;;;;;;;;5147553;28;9357;-79
2022/10/17 12:32:30;;;;;;;;;12.75;12.75;;;;;;;;5146714;28;8865;-75
2022/10/17 12:35:01;;;;;;;;;9.00;9.00;;;;;;;;5162713;28;8795;-78
2022/10/17 12:37:42;;;;;;;;;13.00;12.75;;;;;;;;5178802;28;9600;-80
2022/10/17 12:40:31;;;;;;;;;16.50;16.50;;;;;;;;5130428;28;8839;-77
2022/10/17 12:43:14;;;;;;;;;7.75;7.75;;;;;;;;5146750;28;8826;-75
2022/10/17 12:45:46;;;;;;;;;7.00;7.00;;;;;;;;5129758;28;8869;-81
2022/10/17 12:48:33;;;;;;;;;9.75;9.75;;;;;;;;5146345;28;8889;-81
2022/10/17 12:51:05;;;;;;;;;8.75;8.75;;;;;;;;5162677;28;8819;-76
2022/10/17 12:53:40;;;;;;;;;33.40;32.00;;;;;;;;5146388;28;8829;-78
2022/10/17 12:56:29;;;;;;;;;11.75;11.75;;;;;;;;5162196;28;8834;-79
2022/10/17 12:59:00;;;;;;;;;77.60;61.40;;;;;;;;5146046;28;8870;-79
2022/10/17 13:01:32;;;;;;;;;11.75;11.50;;;;;;;;5160954;28;8835;-77
2022/10/17 13:04:06;;;;;;;;;7.00;7.00;;;;;;;;5160822;28;8822;-78
2022/10/17 13:06:42;;;;;;;;;9.00;9.00;;;;;;;;5160272;28;8819;-74
2022/10/17 13:09:30;;;;;;;;;9.00;9.00;;;;;;;;5160292;28;9678;-82
2022/10/17 13:12:03;;;;;;;;;7.00;7.00;;;;;;;;5162738;28;8815;-78
2022/10/17 13:14:38;;;;;;;;;7.00;7.00;;;;;;;;5146113;28;8866;-79
2022/10/17 13:17:29;;;;;;;;;7.25;7.25;;;;;;;;5146404;28;8927;-82
2022/10/17 13:20:00;;;;;;;;;4.00;4.00;;;;;;;;5177875;28;8795;-79
2022/10/17 13:22:32;;;;;;;;;4.00;4.00;;;;;;;;5145299;28;8810;-82
2022/10/17 13:25:06;;;;;;;;;3.50;3.50;;;;;;;;5162013;28;8830;-79
2022/10/17 13:27:37;;;;;;;;;12.00;12.00;;;;;;;;5146756;28;8799;-79
2022/10/17 13:30:22;;;;;;;;;10.00;10.00;;;;;;;;5187632;28;8914;-82
2022/10/17 13:32:53;;;;;;;;;81.60;68.20;;;;;;;;5184543;28;8830;-84
2022/10/17 13:35:26;;;;;;;;;8.75;8.75;;;;;;;;5135354;28;8842;-78
2022/10/17 13:37:59;;;;;;;;;8.50;8.50;;;;;;;;5163716;28;8815;-79
2022/10/17 13:40:31;;;;;;;;;11.00;11.00;;;;;;;;5165168;28;8810;-84
2022/10/17 13:43:04;;;;;;;;;9.50;9.50;;;;;;;;5181920;28;8825;-82
2022/10/17 13:45:36;;;;;;;;;9.60;9.60;;;;;;;;5164103;28;8787;-82
2022/10/17 13:48:19;;;;;;;;;7.00;7.00;;;;;;;;5164794;28;8819;-84
2022/10/17 13:50:59;;;;;;;;;5.50;5.50;;;;;;;;5164403;28;8799;-81
2022/10/17 13:53:30;;;;;;;;;7.00;7.00;;;;;;;;5163674;28;9543;-78
2022/10/17 13:56:20;;;;;;;;;8.33;8.33;;;;;;;;5164585;28;8780;-81
2022/10/17 13:58:56;;;;;;;;;9.00;9.00;;;;;;;;5148040;28;10524;-81
2022/10/17 14:01:27;;;;;;;;;10.75;10.50;;;;;;;;5164947;28;8814;-81
2022/10/17 14:03:58;;;;;;;;;7.50;7.50;;;;;;;;5147552;28;8783;-81
2022/10/17 14:06:30;;;;;;;;;6.60;6.60;;;;;;;;5147933;28;8811;-77
2022/10/17 14:09:03;;;;;;;;;10.00;10.00;;;;;;;;5164912;28;8809;-78
2022/10/17 14:11:35;;;;;;;;;6.75;6.75;;;;;;;;5145423;28;8810;-76
2022/10/17 14:14:15;;;;;;;;;6.00;6.00;;;;;;;;5167935;28;8815;-77
2022/10/17 14:16:45;;;;;;;;;50.40;41.20;;;;;;;;5162212;28;8845;-79
2022/10/17 14:19:31;;;;;;;;;10.00;10.00;;;;;;;;5164795;28;9613;-75
2022/10/17 14:22:37;;;;;;;;;4.00;4.00;;;;;;;;5154494;28;8914;-82
2022/10/17 14:25:26;;;;;;;;;9.60;9.00;;;;;;;;5073416;29;8842;-79
2022/10/17 14:28:17;;;;;;;;;10.20;10.20;;;;;;;;5167683;28;8813;-81
2022/10/17 14:30:52;;;;;;;;;8.80;8.80;;;;;;;;5151712;28;8816;-80
2022/10/17 14:33:28;;;;;;;;;9.00;9.00;;;;;;;;5169692;28;8847;-79
2022/10/17 14:36:00;;;;;;;;;7.25;7.00;;;;;;;;5168550;28;8877;-80
2022/10/17 14:38:31;;;;;;;;;9.75;9.75;;;;;;;;5153275;28;8807;-79
2022/10/17 14:41:12;;;;;;;;;10.00;10.00;;;;;;;;5168024;28;8953;-78
2022/10/17 14:43:43;;;;;;;;;11.50;10.75;;;;;;;;5151857;28;8953;-81
2022/10/17 14:46:15;;;;;;;;;9.75;9.75;;;;;;;;5151613;28;8847;-80
2022/10/17 14:48:50;;;;;;;;;9.50;9.50;;;;;;;;5151471;28;9649;-81
2022/10/17 14:51:21;;;;;;;;;10.50;10.50;;;;;;;;5152785;28;8868;-81
2022/10/17 14:54:00;;;;;;;;;74.25;60.25;;;;;;;;5170018;28;8922;-79
2022/10/17 14:56:51;;;;;;;;;17.00;17.00;;;;;;;;5159604;28;10087;-82
2022/10/17 14:59:23;;;;;;;;;8.40;8.40;;;;;;;;5176706;28;8847;-78
2022/10/17 15:01:54;;;;;;;;;9.50;9.50;;;;;;;;5169545;28;9613;-77
2022/10/17 15:04:25;;;;;;;;;9.33;9.33;;;;;;;;5151799;28;8791;-78
2022/10/17 15:06:56;;;;;;;;;6.67;6.67;;;;;;;;5169474;28;11564;-84
2022/10/17 15:09:28;;;;;;;;;2.25;2.25;;;;;;;;5157240;28;11480;-85
2022/10/17 15:12:01;;;;;;;;;10.80;10.80;;;;;;;;5170025;28;8798;-83
2022/10/17 15:14:32;;;;;;;;;10.25;10.25;;;;;;;;5156656;28;8929;-85
2022/10/17 15:17:08;;;;;;;;;8.75;8.50;;;;;;;;5151232;28;8996;-81
2022/10/17 15:19:39;;;;;;;;;9.20;9.20;;;;;;;;5178638;28;8811;-81
2022/10/17 15:22:10;;;;;;;;;5.40;5.40;;;;;;;;5146869;28;8831;-79
2022/10/17 15:24:41;;;;;;;;;9.00;9.00;;;;;;;;5131187;28;8865;-80
2022/10/17 15:27:15;;;;;;;;;10.40;10.40;;;;;;;;5147662;28;8858;-84
2022/10/17 15:29:46;;;;;;;;;5.50;5.50;;;;;;;;5159885;28;8826;-78
2022/10/17 15:32:17;;;;;;;;;13.00;12.40;;;;;;;;5134905;28;8795;-84
2022/10/17 15:34:48;;;;;;;;;10.00;10.00;;;;;;;;5163998;28;8815;-79
2022/10/17 15:37:21;;;;;;;;;10.50;10.50;;;;;;;;5129920;28;8827;-78